Historique des mesures à Cassis (13260), France
Quotidien Résumé Octobre 11, 2018 Unités:  Métrique/US    US   Métrique
« Précédent (Jour)
Suivant (Jour) »
Quotidien Hebdomadaire Mensuel Annuel Période au choix
  Maximum: Minimum: Moyenne:
Température: 32 °F /  TemperatureC °C 63.3 °F /  17.4 °C 66 °F /  18.9 °C
Point de rosée: 32 °F /  DewpointC °C 59.9 °F /  15.5 °C 60.6 °F /  15.9 °C
Humidité: Humidity % 75 % 79 %
Vitesse du vent: WindSpeedKMH mph /  0 km/h - 5.4 mph /  8.7 km/h
Rafales: WindSpeedGustKMH mph /  0 km/h - -
Vent:- - ESE
Pression: 0 in /  PressurehPa hPa 29.8 in /  1008.2 hPa -
Précipitations: 129.54 in /  5.1 mm    
Historical Graphs
 
 
Mesures pour : Octobre 11, 2018
Heure Temperature Point de rosée Pression Vent Vitesse du vent Rafales Humidité Pluie (par heure) Conditions
32 °F /  TemperatureC °C 32 °F /  DewpointC °C 0 in /  PressurehPa hPa Calm     Humidity % 0 in /  HourlyPrecipMM mm SoftwareType W/m2
00:10 63.3 °F /  17.4 °C 60.4 °F /  15.8 °C 29.8 in /  1009.3 hPa ESE 16.9 mph /  27.2 km/h 23.0 mph /  37 km/h 90 % 91.44 in /  3.6 mm open2300-1.11 W/m2
01:10 63.3 °F /  17.4 °C 60.4 °F /  15.8 °C 29.8 in /  1009.4 hPa ESE 7.2 mph /  11.6 km/h 7.2 mph /  11.6 km/h 90 % 76.2 in /  3.0 mm open2300-1.11 W/m2
02:10 63.3 °F /  17.4 °C 60.4 °F /  15.8 °C 29.8 in /  1009.0 hPa SSE 6.1 mph /  9.8 km/h 12.6 mph /  20.3 km/h 90 % 25.4 in /  1.0 mm open2300-1.11 W/m2
03:10 64 °F /  17.8 °C 61.2 °F /  16.2 °C 29.8 in /  1008.2 hPa ESE 6.1 mph /  9.8 km/h 8.3 mph /  13.4 km/h 90 % 0 in /  0.0 mm open2300-1.11 W/m2
04:10 64.2 °F /  17.9 °C 60.6 °F /  15.9 °C 29.8 in /  1008.3 hPa SE 12.2 mph /  19.6 km/h 12.2 mph /  19.6 km/h 88 % 0 in /  0.0 mm open2300-1.11 W/m2
05:10 64.2 °F /  17.9 °C 60.3 °F /  15.7 °C 29.8 in /  1008.4 hPa NE 3.6 mph /  5.8 km/h 4.0 mph /  6.4 km/h 87 % 0 in /  0.0 mm open2300-1.11 W/m2
06:10 64.8 °F /  18.2 °C 60.8 °F /  16.0 °C 29.8 in /  1008.4 hPa ESE 6.1 mph /  9.8 km/h 6.1 mph /  9.8 km/h 87 % 0 in /  0.0 mm open2300-1.11 W/m2
07:10 64.6 °F /  18.1 °C 60.6 °F /  15.9 °C 29.8 in /  1009.1 hPa SE 22.7 mph /  36.5 km/h 22.7 mph /  36.5 km/h 87 % 0 in /  0.0 mm open2300-1.11 W/m2
08:10 64.6 °F /  18.1 °C 60.3 °F /  15.7 °C 29.8 in /  1009.2 hPa ESE 5.0 mph /  8 km/h 6.5 mph /  10.5 km/h 86 % 0 in /  0.0 mm open2300-1.11 W/m2
09:10 65.8 °F /  18.8 °C 61.2 °F /  16.2 °C 29.8 in /  1009.9 hPa SE 4.7 mph /  7.6 km/h 8.3 mph /  13.4 km/h 85 % 0 in /  0.0 mm open2300-1.11 W/m2
10:10 67.3 °F /  19.6 °C 62.2 °F /  16.8 °C 29.9 in /  1011.0 hPa Calm   9.4 mph /  15.1 km/h 84 % 0 in /  0.0 mm open2300-1.11 W/m2
11:10 68.2 °F /  20.1 °C 62.8 °F /  17.1 °C 29.9 in /  1011.2 hPa ESE 1.4 mph /  2.3 km/h 3.6 mph /  5.8 km/h 83 % 0 in /  0.0 mm open2300-1.11 W/m2
12:10 69.6 °F /  20.9 °C 63.1 °F /  17.3 °C 29.9 in /  1011.3 hPa SSE 4.3 mph /  6.9 km/h 9.0 mph /  14.5 km/h 80 % 0 in /  0.0 mm open2300-1.11 W/m2
13:10 71.8 °F /  22.1 °C 64.2 °F /  17.9 °C 29.9 in /  1011.3 hPa ESE 2.9 mph /  4.7 km/h 7.6 mph /  12.2 km/h 77 % 0 in /  0.0 mm open2300-1.11 W/m2
14:10 72.1 °F /  22.3 °C 64.2 °F /  17.9 °C 29.9 in /  1011.0 hPa NE 3.2 mph /  5.1 km/h 3.2 mph /  5.1 km/h 76 % 0 in /  0.0 mm open2300-1.11 W/m2
15:10 73 °F /  22.8 °C 64.6 °F /  18.1 °C 29.9 in /  1011.1 hPa East 2.2 mph /  3.5 km/h 4.0 mph /  6.4 km/h 75 % 0 in /  0.0 mm open2300-1.11 W/m2
16:10 73.8 °F /  23.2 °C 65.3 °F /  18.5 °C 29.9 in /  1011.6 hPa ESE 4.7 mph /  7.6 km/h 4.7 mph /  7.6 km/h 75 % 0 in /  0.0 mm open2300-1.11 W/m2
17:10 72.1 °F /  22.3 °C 64.2 °F /  17.9 °C 29.9 in /  1012.1 hPa East 2.5 mph /  4 km/h 4.0 mph /  6.4 km/h 76 % 0 in /  0.0 mm open2300-1.11 W/m2
18:10 70.9 °F /  21.6 °C 63 °F /  17.2 °C 29.9 in /  1012.5 hPa East 7.6 mph /  12.2 km/h 7.6 mph /  12.2 km/h 76 % 0 in /  0.0 mm open2300-1.11 W/m2
19:10 69.1 °F /  20.6 °C 61.5 °F /  16.4 °C 29.9 in /  1013.3 hPa Calm   4.3 mph /  6.9 km/h 77 % 0 in /  0.0 mm open2300-1.11 W/m2
20:10 67.6 °F /  19.8 °C 60.6 °F /  15.9 °C 30 in /  1014.2 hPa SW 4.7 mph /  7.6 km/h 4.7 mph /  7.6 km/h 78 % 0 in /  0.0 mm open2300-1.11 W/m2
21:10 67.1 °F /  19.5 °C 60.8 °F /  16.0 °C 30 in /  1014.9 hPa ESE 2.9 mph /  4.7 km/h 2.9 mph /  4.7 km/h 80 % 0 in /  0.0 mm open2300-1.11 W/m2
22:10 66.9 °F /  19.4 °C 60.6 °F /  15.9 °C 30 in /  1015.6 hPa SSE 5.8 mph /  9.3 km/h 5.8 mph /  9.3 km/h 80 % 0 in /  0.0 mm open2300-1.11 W/m2
23:10 66.2 °F /  19.0 °C 59.9 °F /  15.5 °C 30 in /  1015.8 hPa NE 2.2 mph /  3.5 km/h 3.2 mph /  5.1 km/h 80 % 0 in /  0.0 mm open2300-1.11 W/m2
Observations météo à CASSIS
WU-History script by Weather Underground - 1 mb